Time;durP1;ratioP1;P1;durP2;ratioP2;P2;SDS_P1;SDS_P2;PMS_P1;PMS_P2;Temp;Humidity;BMP_temperature;BMP_pressure;BME280_temperature;BME280_humidity;BME280_pressure;Samples;Min_cycle;Max_cycle;Signal;HPM_P1;HPM_P2
2021/12/15 00:01:34;;;;;;;9.13;4.75;;;0.20;99.90;;;;;;5028654;28;20026;-80
2021/12/15 00:04:00;;;;;;;17.00;6.18;;;0.60;99.90;;;;;;5028937;28;20057;-81
2021/12/15 00:06:26;;;;;;;10.95;5.85;;;-0.80;99.90;;;;;;5012893;28;20498;-76
2021/12/15 00:08:56;;;;;;;9.73;6.18;;;0.10;99.90;;;;;;5012689;28;20025;-77
2021/12/15 00:11:26;;;;;;;7.18;3.95;;;1.90;99.90;;;;;;5028169;28;20467;-76
2021/12/15 00:13:54;;;;;;;9.27;5.65;;;0.20;99.90;;;;;;5012939;28;20018;-76
2021/12/15 00:16:20;;;;;;;8.55;7.18;;;0.20;99.90;;;;;;5027668;28;20058;-77
2021/12/15 00:18:45;;;;;;;14.45;6.05;;;0.90;99.90;;;;;;5011010;28;20548;-77
2021/12/15 00:21:14;;;;;;;9.40;5.35;;;0.20;99.90;;;;;;5028076;28;20026;-82
2021/12/15 00:23:41;;;;;;;13.37;5.53;;;0.20;99.90;;;;;;5028349;28;20036;-87
2021/12/15 00:26:07;;;;;;;11.60;5.35;;;1.00;99.90;;;;;;5028415;28;20390;-82
2021/12/15 00:28:33;;;;;;;17.50;5.60;;;0.20;99.90;;;;;;5028134;28;20025;-78
2021/12/15 00:30:59;;;;;;;12.60;4.65;;;0.10;99.90;;;;;;5027561;28;20022;-82
2021/12/15 00:33:25;;;;;;;10.05;6.22;;;0.10;99.90;;;;;;5028349;28;20498;-84
2021/12/15 00:35:51;;;;;;;7.88;3.78;;;0.00;99.90;;;;;;5027713;28;20026;-78
2021/12/15 00:38:17;;;;;;;9.35;6.03;;;0.10;99.90;;;;;;5028389;28;20549;-79
2021/12/15 00:40:43;;;;;;;8.93;4.30;;;0.20;99.90;;;;;;5029629;28;20026;-77
2021/12/15 00:43:09;;;;;;;9.10;4.43;;;0.20;99.90;;;;;;5030067;28;20026;-76
2021/12/15 00:45:35;;;;;;;10.60;5.45;;;0.20;99.90;;;;;;5028269;28;20425;-77
2021/12/15 00:48:01;;;;;;;14.07;5.00;;;0.20;99.90;;;;;;5027211;28;20030;-79
2021/12/15 00:50:32;;;;;;;15.80;4.80;;;0.10;99.90;;;;;;5026687;28;20026;-77
2021/12/15 00:52:58;;;;;;;10.13;6.60;;;0.20;99.90;;;;;;5026969;28;20029;-78
2021/12/15 00:55:27;;;;;;;12.05;5.30;;;0.10;99.90;;;;;;5010433;28;20018;-75
2021/12/15 00:57:53;;;;;;;5.90;3.88;;;0.20;99.90;;;;;;5009724;28;20057;-77
2021/12/15 01:00:26;;;;;;;10.80;4.85;;;0.20;99.90;;;;;;5009778;28;20349;-76
2021/12/15 01:02:53;;;;;;;12.98;6.25;;;0.20;99.90;;;;;;5025881;28;20026;-75
2021/12/15 01:05:21;;;;;;;10.98;5.57;;;0.30;99.90;;;;;;5025580;28;20018;-76
2021/12/15 01:07:48;;;;;;;11.55;5.15;;;0.40;99.90;;;;;;5025272;28;20033;-76
2021/12/15 01:10:20;;;;;;;12.20;5.65;;;0.40;99.90;;;;;;5026630;28;20032;-75
2021/12/15 01:14:33;;;;;;;9.88;5.57;;;0.50;99.90;;;;;;5011631;28;20459;-76
2021/12/15 01:21:15;;;;;;;11.48;8.07;;;0.30;99.90;;;;;;5011747;28;20080;-77
2021/12/15 01:23:41;;;;;;;10.20;4.95;;;0.30;99.90;;;;;;5011508;28;20105;-76
2021/12/15 01:26:11;;;;;;;12.77;4.78;;;0.30;99.90;;;;;;5026679;28;20386;-77
2021/12/15 01:28:37;;;;;;;11.95;5.00;;;0.30;99.90;;;;;;5010273;28;20025;-76
2021/12/15 01:31:05;;;;;;;10.20;4.60;;;0.30;99.90;;;;;;5010864;28;20034;-76
2021/12/15 01:33:33;;;;;;;12.45;5.80;;;0.30;99.90;;;;;;5026250;28;20223;-76
2021/12/15 01:35:59;;;;;;;10.23;4.85;;;0.30;99.90;;;;;;5009583;28;20040;-75
2021/12/15 01:38:30;;;;;;;14.20;4.95;;;0.30;99.90;;;;;;5025601;28;20049;-76
2021/12/15 01:40:58;;;;;;;8.80;4.57;;;0.30;99.90;;;;;;5009909;28;20538;-76
2021/12/15 01:43:39;;;;;;;13.32;6.90;;;0.40;99.90;;;;;;5011046;28;20030;-76
2021/12/15 01:48:59;;;;;;;10.52;4.50;;;0.30;99.90;;;;;;5011463;28;20504;-76
2021/12/15 01:51:26;;;;;;;32.63;5.53;;;0.30;99.90;;;;;;5011278;28;20026;-76
2021/12/15 01:53:52;;;;;;;14.18;5.72;;;0.30;99.90;;;;;;5026150;28;20386;-76
2021/12/15 01:56:18;;;;;;;15.10;6.57;;;0.30;99.90;;;;;;5010637;28;20109;-76
2021/12/15 01:58:44;;;;;;;7.88;5.07;;;0.30;99.90;;;;;;5010964;28;20052;-78
2021/12/15 02:01:10;;;;;;;10.80;5.57;;;0.30;99.90;;;;;;5025833;28;20360;-76
2021/12/15 02:03:38;;;;;;;18.45;7.72;;;0.40;99.90;;;;;;5009452;28;20045;-76
2021/12/15 02:06:07;;;;;;;9.38;5.22;;;0.40;99.90;;;;;;5025825;28;20026;-76
2021/12/15 02:08:33;;;;;;;6.75;5.85;;;0.30;99.90;;;;;;5025828;28;20080;-76
2021/12/15 02:10:59;;;;;;;18.02;6.75;;;0.40;99.90;;;;;;5010699;28;20088;-76
2021/12/15 02:13:25;;;;;;;14.65;5.47;;;0.40;99.90;;;;;;5010897;28;20022;-76
2021/12/15 02:15:55;;;;;;;13.32;6.00;;;0.40;99.90;;;;;;5025498;28;20185;-77
2021/12/15 02:18:26;;;;;;;18.08;5.70;;;0.40;99.90;;;;;;5010439;28;20148;-76
2021/12/15 02:20:59;;;;;;;13.38;6.10;;;0.40;99.90;;;;;;5007876;28;20026;-77
2021/12/15 02:23:33;;;;;;;19.50;6.78;;;0.40;99.90;;;;;;5009283;28;20112;-76
2021/12/15 02:26:01;;;;;;;9.48;4.07;;;0.40;99.90;;;;;;5024008;28;20017;-76
2021/12/15 02:28:27;;;;;;;8.57;4.95;;;0.40;99.90;;;;;;5023661;28;20439;-77
2021/12/15 02:38:38;;;;;;;4.82;3.30;;;0.30;99.90;;;;;;5009640;28;20049;-76
2021/12/15 02:41:07;;;;;;;6.93;5.20;;;0.30;99.90;;;;;;5024653;28;20081;-77
2021/12/15 02:43:34;;;;;;;10.77;4.68;;;0.30;99.90;;;;;;5010437;28;20049;-76
2021/12/15 02:46:00;;;;;;;27.10;5.13;;;0.40;99.90;;;;;;5024445;28;20034;-76
2021/12/15 02:48:26;;;;;;;22.42;5.30;;;0.50;99.90;;;;;;5007790;28;20044;-76
2021/12/15 02:50:52;;;;;;;10.52;4.72;;;0.40;99.90;;;;;;5025328;28;20032;-78
2021/12/15 02:53:18;;;;;;;10.18;4.20;;;0.50;99.90;;;;;;5025836;28;20037;-76
2021/12/15 02:55:44;;;;;;;6.78;3.90;;;0.50;99.90;;;;;;5009168;28;20390;-77
2021/12/15 02:58:11;;;;;;;9.50;5.13;;;0.40;99.90;;;;;;5009486;28;20058;-76
2021/12/15 03:00:54;;;;;;;8.52;3.78;;;0.40;99.90;;;;;;5009055;28;20088;-76
2021/12/15 03:05:57;;;;;;;6.95;4.22;;;0.40;99.90;;;;;;5010381;28;20064;-76
2021/12/15 03:08:36;;;;;;;13.82;5.50;;;0.40;99.90;;;;;;5010676;28;20030;-76
2021/12/15 03:16:30;;;;;;;10.35;5.10;;;0.30;99.90;;;;;;5010136;28;20144;-77
2021/12/15 03:18:58;;;;;;;10.70;5.07;;;0.40;99.90;;;;;;5024693;28;20132;-77
2021/12/15 03:21:26;;;;;;;12.43;7.35;;;0.40;99.90;;;;;;5025016;28;20022;-77
2021/12/15 03:23:55;;;;;;;8.03;4.70;;;0.30;99.90;;;;;;5009884;28;20021;-77
2021/12/15 03:26:26;;;;;;;8.23;4.00;;;0.30;99.90;;;;;;5008650;28;20777;-77
2021/12/15 03:39:24;;;;;;;5.05;2.95;;;0.30;99.90;;;;;;5010170;28;20030;-76
2021/12/15 03:41:59;;;;;;;8.10;3.47;;;0.40;99.90;;;;;;5024843;28;20026;-78
2021/12/15 03:44:25;;;;;;;7.97;3.45;;;0.30;99.90;;;;;;5024803;28;20682;-77
2021/12/15 03:46:52;;;;;;;10.43;4.05;;;0.40;99.90;;;;;;5025166;28;20029;-77
2021/12/15 03:49:18;;;;;;;10.40;4.03;;;0.40;99.90;;;;;;5025063;28;20045;-76
2021/12/15 03:51:44;;;;;;;10.45;3.63;;;0.40;99.90;;;;;;5025090;28;20505;-75
2021/12/15 03:54:10;;;;;;;8.15;3.20;;;0.40;99.90;;;;;;5024594;28;20057;-77
2021/12/15 03:56:39;;;;;;;6.85;3.13;;;0.60;99.90;;;;;;5024484;28;20044;-79
2021/12/15 03:59:06;;;;;;;8.73;4.50;;;0.60;99.90;;;;;;5010010;28;20121;-77
2021/12/15 04:01:31;;;;;;;8.02;4.57;;;0.60;99.90;;;;;;5012910;28;20435;-77
2021/12/15 04:03:57;;;;;;;4.97;4.03;;;0.60;99.90;;;;;;5011761;28;20117;-77
2021/12/15 04:06:27;;;;;;;13.63;6.05;;;0.50;99.90;;;;;;5012092;28;20026;-77
2021/12/15 04:08:53;;;;;;;;;;;0.50;99.90;;;;;;5013823;28;20425;-76
2021/12/15 04:11:21;;;;;;;6.25;3.95;;;0.40;99.90;;;;;;5013252;28;19909;-76
2021/12/15 04:13:48;;;;;;;8.32;4.97;;;0.60;99.90;;;;;;5028282;28;20025;-76
2021/12/15 04:16:40;;;;;;;8.02;4.25;;;0.40;99.90;;;;;;5028092;28;20034;-76
2021/12/15 04:19:10;;;;;;;7.35;4.03;;;0.40;99.90;;;;;;5012890;28;20448;-76
2021/12/15 04:21:37;;;;;;;6.20;5.20;;;0.40;99.90;;;;;;5023731;28;20037;-76
2021/12/15 04:24:02;;;;;;;6.32;5.15;;;0.40;99.90;;;;;;5028239;28;20022;-77
2021/12/15 04:26:28;;;;;;;7.40;3.55;;;0.40;99.90;;;;;;5028009;28;20029;-76
2021/12/15 04:28:54;;;;;;;9.18;4.10;;;0.40;99.90;;;;;;5012008;28;20448;-76
2021/12/15 04:31:25;;;;;;;6.93;4.20;;;0.30;99.90;;;;;;5028377;28;20061;-76
2021/12/15 04:34:00;;;;;;;5.22;4.72;;;0.50;99.90;;;;;;5028052;28;20501;-77
2021/12/15 04:36:30;;;;;;;13.93;5.93;;;0.50;99.90;;;;;;5012833;28;20022;-77
2021/12/15 04:38:57;;;;;;;11.23;5.32;;;0.50;99.90;;;;;;5027653;28;20492;-76
2021/12/15 04:41:24;;;;;;;8.00;3.92;;;0.40;99.90;;;;;;5011571;28;20030;-77
2021/12/15 04:43:57;;;;;;;11.48;4.97;;;0.50;99.90;;;;;;5027846;28;20026;-77
2021/12/15 04:46:32;;;;;;;9.75;6.13;;;0.40;99.90;;;;;;5013220;28;20022;-78
2021/12/15 04:48:59;;;;;;;10.68;4.97;;;0.50;99.90;;;;;;5012236;28;20030;-76
2021/12/15 04:51:26;;;;;;;8.55;4.97;;;0.50;99.90;;;;;;5027694;28;20470;-77
2021/12/15 04:53:53;;;;;;;15.73;5.45;;;0.40;99.90;;;;;;5012477;28;20038;-76
2021/12/15 04:56:20;;;;;;;10.90;4.82;;;0.40;99.90;;;;;;5012311;28;20053;-76
2021/12/15 04:58:49;;;;;;;9.45;5.15;;;0.40;99.90;;;;;;5012441;28;20677;-76
2021/12/15 05:01:15;;;;;;;21.50;5.05;;;0.40;99.90;;;;;;5012198;28;20018;-77
2021/12/15 05:03:42;;;;;;;14.50;5.63;;;0.50;99.90;;;;;;5010864;28;20524;-78
2021/12/15 05:06:08;;;;;;;8.88;5.70;;;0.50;99.90;;;;;;5027408;28;20162;-76
2021/12/15 05:08:35;;;;;;;15.25;4.70;;;0.50;99.90;;;;;;5012091;28;20133;-76
2021/12/15 05:11:02;;;;;;;9.18;4.82;;;0.50;99.90;;;;;;5010563;28;20022;-76
2021/12/15 05:13:28;;;;;;;20.10;6.22;;;0.60;99.90;;;;;;5010753;28;20087;-76
2021/12/15 05:15:54;;;;;;;12.43;5.47;;;0.50;99.90;;;;;;5011865;28;20395;-77
2021/12/15 05:18:21;;;;;;;9.10;4.07;;;0.50;99.90;;;;;;5011671;28;20037;-76
2021/12/15 05:20:50;;;;;;;15.38;8.02;;;0.40;99.90;;;;;;5027089;28;20030;-79
2021/12/15 05:23:17;;;;;;;16.85;6.68;;;0.40;99.90;;;;;;5010722;28;20084;-78
2021/12/15 05:25:43;;;;;;;13.80;6.43;;;0.50;99.90;;;;;;5027050;28;20026;-77
2021/12/15 05:28:09;;;;;;;13.13;5.78;;;0.50;99.90;;;;;;5011832;28;20478;-76
2021/12/15 05:30:35;;;;;;;10.48;5.13;;;0.50;99.90;;;;;;5011316;28;20033;-76
2021/12/15 05:33:01;;;;;;;14.13;5.30;;;0.50;99.90;;;;;;5026231;28;20036;-76
2021/12/15 05:35:27;;;;;;;9.77;4.97;;;0.50;99.90;;;;;;5026509;28;20018;-78
2021/12/15 05:37:57;;;;;;;20.30;6.82;;;0.50;99.90;;;;;;5026491;28;20441;-77
2021/12/15 05:40:24;;;;;;;16.08;6.93;;;0.50;99.90;;;;;;5026786;28;20050;-77
2021/12/15 05:42:50;;;;;;;16.40;6.38;;;0.50;99.90;;;;;;5027040;28;20033;-76
2021/12/15 05:45:16;;;;;;;10.80;6.85;;;0.50;99.90;;;;;;5026729;28;20026;-77
2021/12/15 05:47:42;;;;;;;10.65;5.32;;;0.50;99.90;;;;;;5026585;28;20026;-76
2021/12/15 05:50:12;;;;;;;12.73;5.65;;;0.50;99.90;;;;;;5026640;28;20413;-75
2021/12/15 05:52:38;;;;;;;27.52;5.28;;;0.50;99.90;;;;;;5026549;28;20405;-77
2021/12/15 05:55:07;;;;;;;11.27;4.75;;;0.50;99.90;;;;;;5026480;28;20022;-76
2021/12/15 05:57:33;;;;;;;8.98;5.40;;;0.50;99.90;;;;;;5009776;28;20042;-76
2021/12/15 05:59:59;;;;;;;23.98;5.18;;;0.60;99.90;;;;;;5010922;28;20398;-78
2021/12/15 06:02:25;;;;;;;8.65;5.35;;;0.60;99.90;;;;;;5026434;28;20025;-77
2021/12/15 06:04:51;;;;;;;11.75;5.57;;;0.50;99.90;;;;;;5026409;28;20018;-78
2021/12/15 06:07:17;;;;;;;13.80;5.72;;;0.50;99.90;;;;;;5011209;28;20025;-78
2021/12/15 06:09:42;;;;;;;10.45;5.45;;;0.50;99.90;;;;;;5009809;28;20029;-79
2021/12/15 06:12:09;;;;;;;14.00;5.95;;;0.50;99.90;;;;;;5026131;28;20029;-77
2021/12/15 06:14:35;;;;;;;13.20;6.35;;;0.50;99.90;;;;;;5026206;28;20022;-76
2021/12/15 06:17:05;;;;;;;20.50;4.88;;;0.40;99.90;;;;;;5008847;28;20052;-76
2021/12/15 06:19:31;;;;;;;8.80;5.90;;;0.40;99.90;;;;;;5014627;28;20052;-76
2021/12/15 06:22:00;;;;;;;13.13;6.10;;;0.50;99.90;;;;;;5015724;28;20481;-76
2021/12/15 06:24:26;;;;;;;13.70;5.88;;;0.50;99.90;;;;;;5010571;28;20140;-76
2021/12/15 06:26:52;;;;;;;24.38;6.90;;;0.50;99.90;;;;;;5012654;28;20060;-77
2021/12/15 06:29:18;;;;;;;12.70;5.70;;;0.50;99.90;;;;;;5013092;28;20072;-77
2021/12/15 06:31:44;;;;;;;11.52;5.82;;;0.50;99.90;;;;;;5018189;28;20341;-76
2021/12/15 06:34:10;;;;;;;15.35;5.30;;;0.50;99.90;;;;;;5015014;28;20310;-77
2021/12/15 06:36:36;;;;;;;15.95;6.80;;;0.50;99.90;;;;;;5013095;28;20441;-77
2021/12/15 06:39:04;;;;;;;13.70;5.57;;;0.50;99.90;;;;;;5017422;28;20025;-77
2021/12/15 06:41:30;;;;;;;18.43;8.47;;;0.50;99.90;;;;;;5010201;28;20022;-76
2021/12/15 06:43:58;;;;;;;14.15;6.35;;;0.50;99.90;;;;;;5011357;28;20079;-77
2021/12/15 07:00:11;;;;;;;21.02;6.82;;;0.50;99.90;;;;;;5022177;28;20111;-76
2021/12/15 07:02:38;;;;;;;16.90;7.47;;;0.50;99.90;;;;;;5010054;28;20549;-77
2021/12/15 07:05:07;;;;;;;15.88;6.15;;;0.50;99.90;;;;;;5007198;28;20021;-77
2021/12/15 07:07:34;;;;;;;10.88;5.15;;;0.50;99.90;;;;;;5006282;28;20490;-76
2021/12/15 07:09:59;;;;;;;13.75;5.90;;;0.50;99.90;;;;;;5003466;28;20160;-76
2021/12/15 07:12:25;;;;;;;19.85;6.47;;;-1.10;99.90;;;;;;5002986;28;20628;-77
2021/12/15 07:14:51;;;;;;;16.95;7.38;;;0.60;99.90;;;;;;5001824;28;20486;-76
2021/12/15 07:17:21;;;;;;;14.52;5.88;;;0.60;99.90;;;;;;5003326;28;20073;-78
2021/12/15 07:20:04;;;;;;;12.25;5.28;;;0.60;99.90;;;;;;5004159;28;20113;-75
2021/12/15 07:22:43;;;;;;;18.38;7.57;;;0.60;99.90;;;;;;5002546;28;20117;-77
2021/12/15 07:25:13;;;;;;;11.45;5.25;;;0.70;99.90;;;;;;5005154;28;20033;-79
2021/12/15 07:27:40;;;;;;;14.73;8.80;;;0.70;99.90;;;;;;5004009;28;20022;-77
2021/12/15 07:30:06;;;;;;;10.18;5.28;;;0.70;99.90;;;;;;5004692;28;20103;-76
2021/12/15 07:32:32;;;;;;;12.50;7.07;;;0.70;99.90;;;;;;5017591;28;20079;-77
2021/12/15 07:34:58;;;;;;;18.77;7.85;;;0.70;99.90;;;;;;5015557;28;20474;-76
2021/12/15 07:37:24;;;;;;;15.73;6.28;;;0.60;99.90;;;;;;5017387;28;20040;-77
2021/12/15 07:39:59;;;;;;;11.90;5.65;;;0.70;99.90;;;;;;5016662;28;20032;-76
2021/12/15 07:43:23;;;;;;;12.75;5.75;;;0.80;99.90;;;;;;5009546;28;20533;-76
2021/12/15 07:45:15;;;;;;;14.40;7.30;;;0.80;99.90;;;;;;4998544;28;20034;-76
2021/12/15 07:47:41;;;;;;;21.50;6.35;;;0.90;99.90;;;;;;5006239;28;20642;-75
2021/12/15 07:50:07;;;;;;;24.92;6.68;;;1.00;99.90;;;;;;5007193;28;20053;-76
2021/12/15 07:52:33;;;;;;;20.80;6.60;;;1.00;99.90;;;;;;5007364;28;20029;-76
2021/12/15 07:54:58;;;;;;;18.25;6.25;;;1.00;99.90;;;;;;5010161;28;20026;-75
2021/12/15 07:57:28;;;;;;;21.73;6.60;;;1.00;99.90;;;;;;5012589;28;20042;-76
2021/12/15 07:59:56;;;;;;;19.73;11.63;;;1.00;99.90;;;;;;5016829;28;20033;-77
2021/12/15 08:02:22;;;;;;;22.80;8.10;;;1.00;99.90;;;;;;5017520;28;20033;-75
2021/12/15 08:04:47;;;;;;;17.98;5.65;;;1.10;99.90;;;;;;5015685;28;20795;-77
2021/12/15 08:07:15;;;;;;;17.95;6.20;;;1.10;99.90;;;;;;5008946;28;20022;-77
2021/12/15 08:09:41;;;;;;;23.90;8.43;;;1.10;99.90;;;;;;5009824;28;20022;-77
2021/12/15 08:12:07;;;;;;;33.25;6.55;;;1.10;99.90;;;;;;5008516;28;20037;-76
2021/12/15 08:14:33;;;;;;;10.18;6.57;;;1.10;99.90;;;;;;5007900;28;20076;-76
2021/12/15 08:16:58;;;;;;;13.20;7.70;;;1.20;99.90;;;;;;5013217;28;20026;-76
2021/12/15 08:19:24;;;;;;;16.52;7.53;;;1.20;99.90;;;;;;5027237;28;20256;-76
2021/12/15 08:21:50;;;;;;;18.70;8.60;;;1.30;99.90;;;;;;5007020;28;20018;-76
2021/12/15 08:24:16;;;;;;;26.17;6.38;;;1.20;99.90;;;;;;5007746;28;20348;-76
2021/12/15 08:26:42;;;;;;;13.18;8.40;;;1.30;99.90;;;;;;5008388;28;20727;-76
2021/12/15 08:29:08;;;;;;;20.90;6.95;;;1.40;99.90;;;;;;5024697;28;20034;-76
2021/12/15 08:31:33;;;;;;;46.90;8.98;;;1.40;99.90;;;;;;5011869;28;20018;-76
2021/12/15 08:33:59;;;;;;;10.20;4.82;;;1.50;99.90;;;;;;5009628;28;20329;-76
2021/12/15 08:36:25;;;;;;;24.25;6.00;;;1.60;99.90;;;;;;5008696;28;20060;-76
2021/12/15 08:38:54;;;;;;;42.35;8.18;;;1.70;99.90;;;;;;5008815;28;20490;-75
2021/12/15 08:41:26;;;;;;;30.48;8.88;;;1.70;99.90;;;;;;5008587;28;20026;-75
2021/12/15 08:43:52;;;;;;;17.05;6.43;;;1.60;99.90;;;;;;5008418;28;20026;-76
2021/12/15 08:46:31;;;;;;;38.72;6.55;;;1.70;99.90;;;;;;5007755;28;20509;-75
2021/12/15 08:48:58;;;;;;;26.83;4.75;;;1.70;99.90;;;;;;5005981;28;20032;-76
2021/12/15 08:51:26;;;;;;;30.75;3.92;;;1.80;99.90;;;;;;5007190;28;20042;-76
2021/12/15 08:53:54;;;;;;;10.52;4.70;;;1.90;99.90;;;;;;5027237;28;20105;-76
2021/12/15 08:56:20;;;;;;;12.90;6.83;;;3.10;99.90;;;;;;5026098;28;20508;-76
2021/12/15 08:58:46;;;;;;;7.22;4.32;;;1.90;99.90;;;;;;5025367;28;20033;-76
2021/12/15 09:01:12;;;;;;;12.32;4.80;;;2.10;99.90;;;;;;5026984;28;20025;-77
2021/12/15 09:03:41;;;;;;;12.30;4.53;;;2.10;99.90;;;;;;5025933;28;20033;-75
2021/12/15 09:06:07;;;;;;;11.55;4.75;;;2.10;99.90;;;;;;5018429;28;20405;-76
2021/12/15 09:08:33;;;;;;;33.45;6.88;;;2.10;99.90;;;;;;5011796;28;20096;-77
2021/12/15 09:11:03;;;;;;;13.43;6.18;;;2.10;99.90;;;;;;5007737;28;20546;-75
2021/12/15 09:13:30;;;;;;;31.23;5.47;;;2.10;99.90;;;;;;5026774;28;20017;-75
2021/12/15 09:15:59;;;;;;;21.73;6.88;;;2.20;99.90;;;;;;5021917;28;20025;-76
2021/12/15 09:18:25;;;;;;;18.02;6.35;;;2.30;99.90;;;;;;5008670;28;20129;-76
2021/12/15 09:20:51;;;;;;;16.00;5.38;;;2.20;99.90;;;;;;5010585;28;20145;-75
2021/12/15 09:23:18;;;;;;;17.70;6.30;;;2.20;99.90;;;;;;5024196;28;20410;-78
2021/12/15 09:25:45;;;;;;;10.50;6.13;;;2.20;99.90;;;;;;5023278;28;20018;-78
2021/12/15 09:28:11;;;;;;;11.40;4.60;;;2.20;99.90;;;;;;5016408;28;20030;-78
2021/12/15 09:30:43;;;;;;;12.93;5.28;;;2.20;99.90;;;;;;5010979;28;20132;-77
2021/12/15 09:33:11;;;;;;;11.25;5.70;;;2.20;99.90;;;;;;5006988;28;20484;-76
2021/12/15 09:35:37;;;;;;;10.70;6.00;;;2.20;99.90;;;;;;5007092;28;20026;-77
2021/12/15 09:38:14;;;;;;;11.82;4.63;;;2.30;99.90;;;;;;5008748;28;20064;-78
2021/12/15 09:40:40;;;;;;;14.82;5.85;;;2.40;99.90;;;;;;5004114;28;20025;-78
2021/12/15 09:43:07;;;;;;;11.30;6.32;;;2.40;99.90;;;;;;5004313;28;20113;-77
2021/12/15 09:56:23;;;;;;;13.85;7.93;;;4.30;99.90;;;;;;5005952;28;20050;-76
2021/12/15 10:10:39;;;;;;;8.47;3.63;;;2.50;99.90;;;;;;5018349;28;20338;-77
2021/12/15 10:17:24;;;;;;;11.57;4.97;;;2.70;99.90;;;;;;5016973;28;20089;-76
2021/12/15 10:18:16;;;;;;;10.98;4.25;;;2.60;99.90;;;;;;5011660;28;20049;-76
2021/12/15 10:20:42;;;;;;;8.50;3.83;;;2.60;99.90;;;;;;5006023;28;20020;-76
2021/12/15 10:23:12;;;;;;;10.60;3.83;;;2.70;99.90;;;;;;5032729;28;20049;-76
2021/12/15 10:25:47;;;;;;;9.63;4.50;;;2.80;99.90;;;;;;5023946;28;20318;-76
2021/12/15 10:28:18;;;;;;;9.07;4.55;;;2.70;99.90;;;;;;5019626;28;20285;-75
2021/12/15 10:30:51;;;;;;;8.07;4.07;;;2.80;99.90;;;;;;5018218;28;20049;-76
2021/12/15 10:33:26;;;;;;;11.35;5.40;;;2.70;99.90;;;;;;5013673;28;20030;-76
2021/12/15 10:35:53;;;;;;;7.93;5.47;;;2.80;99.90;;;;;;5018451;28;20311;-76
2021/12/15 10:38:19;;;;;;;11.95;4.95;;;2.80;99.90;;;;;;5020649;28;20033;-77
2021/12/15 10:40:55;;;;;;;16.70;6.85;;;2.90;99.90;;;;;;5017754;28;20022;-77
2021/12/15 10:43:24;;;;;;;13.73;4.43;;;2.90;99.90;;;;;;5026308;28;20029;-76
2021/12/15 10:45:54;;;;;;;15.15;6.57;;;3.00;99.90;;;;;;5011041;28;20041;-77
2021/12/15 10:48:34;;;;;;;11.93;6.20;;;3.00;99.90;;;;;;5008674;28;20026;-76
2021/12/15 10:51:18;;;;;;;16.00;3.03;;;3.00;99.90;;;;;;5004398;28;20069;-76
2021/12/15 10:53:45;;;;;;;6.53;3.58;;;3.20;99.90;;;;;;5022542;28;20040;-76
2021/12/15 10:56:18;;;;;;;8.73;3.63;;;3.10;99.90;;;;;;5024693;28;20052;-75
2021/12/15 10:58:52;;;;;;;8.27;4.72;;;3.10;99.90;;;;;;5028606;28;20117;-76
2021/12/15 11:01:42;;;;;;;8.15;3.33;;;3.10;99.90;;;;;;5025598;28;20548;-76
2021/12/15 11:04:42;;;;;;;4.75;3.67;;;3.10;99.90;;;;;;5025604;28;20040;-76
2021/12/15 11:07:21;;;;;;;12.88;4.82;;;2.90;99.90;;;;;;5024871;28;20030;-76
2021/12/15 11:10:07;;;;;;;5.20;2.30;;;2.90;99.90;;;;;;5023664;28;20669;-76
2021/12/15 11:12:40;;;;;;;8.43;4.18;;;2.90;99.90;;;;;;5017902;28;20118;-75
2021/12/15 11:15:22;;;;;;;5.35;3.13;;;3.00;99.90;;;;;;5024780;28;20026;-76
2021/12/15 11:18:10;;;;;;;9.38;4.30;;;3.00;99.90;;;;;;5020169;28;20044;-76
2021/12/15 11:20:45;;;;;;;12.48;6.60;;;3.00;99.90;;;;;;5023065;28;20103;-77
2021/12/15 11:23:19;;;;;;;4.60;3.47;;;3.10;99.90;;;;;;5025737;28;20053;-77
2021/12/15 11:25:49;;;;;;;7.63;3.25;;;3.00;99.90;;;;;;5015399;28;20285;-76
2021/12/15 11:28:20;;;;;;;9.95;3.22;;;3.00;99.90;;;;;;5013571;28;20022;-78
2021/12/15 11:31:04;;;;;;;13.73;5.13;;;3.00;99.90;;;;;;5012095;28;20351;-75
2021/12/15 11:33:37;;;;;;;5.05;2.63;;;3.10;99.90;;;;;;5011648;28;20052;-76
2021/12/15 11:36:17;;;;;;;9.52;2.92;;;3.20;99.90;;;;;;5012743;28;20129;-76
2021/12/15 11:39:05;;;;;;;7.60;4.35;;;3.10;99.90;;;;;;5022803;28;20037;-76
2021/12/15 11:41:37;;;;;;;18.40;6.95;;;3.10;99.90;;;;;;5008841;28;20482;-75
2021/12/15 11:44:16;;;;;;;19.70;9.05;;;3.10;99.90;;;;;;5002724;28;20030;-76
2021/12/15 11:46:47;;;;;;;7.25;4.93;;;3.10;99.90;;;;;;5001070;28;20394;-75
2021/12/15 11:49:22;;;;;;;8.60;4.82;;;3.20;99.90;;;;;;5001099;28;20018;-76
2021/12/15 11:52:01;;;;;;;10.05;4.35;;;3.30;99.90;;;;;;5001150;28;20038;-76
2021/12/15 11:54:53;;;;;;;16.77;4.93;;;3.30;99.90;;;;;;5001024;28;20030;-76
2021/12/15 11:57:23;;;;;;;12.20;6.30;;;3.40;99.90;;;;;;4998967;28;20301;-76
2021/12/15 11:59:56;;;;;;;8.60;2.75;;;3.50;99.90;;;;;;5005777;28;20064;-76
2021/12/15 12:02:21;;;;;;;9.43;5.32;;;3.50;99.90;;;;;;5021648;28;20080;-76
2021/12/15 12:04:53;;;;;;;9.20;3.58;;;3.20;99.90;;;;;;5020797;28;20030;-76
2021/12/15 12:07:31;;;;;;;17.65;4.45;;;3.10;99.90;;;;;;5020204;28;20030;-76
2021/12/15 12:10:21;;;;;;;10.93;3.88;;;3.00;99.90;;;;;;5022368;28;20034;-76
2021/12/15 12:12:53;;;;;;;6.20;2.85;;;3.00;99.90;;;;;;5020623;28;20631;-76
2021/12/15 12:15:27;;;;;;;12.70;4.35;;;3.00;99.90;;;;;;5023102;28;20022;-76
2021/12/15 12:18:00;;;;;;;8.98;3.30;;;3.10;99.90;;;;;;5022059;28;20120;-77
2021/12/15 12:20:39;;;;;;;16.38;6.63;;;3.10;99.90;;;;;;5022005;28;20021;-76
2021/12/15 12:23:08;;;;;;;12.18;5.30;;;4.30;99.90;;;;;;5023964;28;20497;-76
2021/12/15 12:25:46;;;;;;;19.77;8.52;;;3.30;99.90;;;;;;5024487;28;20079;-76
2021/12/15 12:28:15;;;;;;;9.98;3.90;;;3.30;99.90;;;;;;5025871;28;20612;-76
2021/12/15 12:30:45;;;;;;;7.00;3.78;;;3.30;99.90;;;;;;5023503;28;20029;-76
2021/12/15 12:33:13;;;;;;;6.28;4.32;;;3.30;99.90;;;;;;5024011;28;20100;-76
2021/12/15 12:35:49;;;;;;;8.02;5.10;;;3.40;99.90;;;;;;5024862;28;20063;-76
2021/12/15 12:38:20;;;;;;;11.10;4.53;;;3.40;99.90;;;;;;5023801;28;20124;-76
2021/12/15 12:40:53;;;;;;;9.68;3.85;;;3.30;99.90;;;;;;5023616;28;20041;-76
2021/12/15 12:43:25;;;;;;;5.95;3.78;;;3.30;99.90;;;;;;5025805;28;20032;-79
2021/12/15 12:46:14;;;;;;;5.97;3.22;;;3.30;99.90;;;;;;5023750;28;20032;-77
2021/12/15 12:49:13;;;;;;;6.63;3.13;;;3.50;99.90;;;;;;5024698;28;20061;-76
2021/12/15 13:00:38;;;;;;;8.40;4.38;;;3.50;99.90;;;;;;5024943;28;20040;-81
2021/12/15 13:03:16;;;;;;;5.00;2.45;;;3.50;99.90;;;;;;5019118;28;20159;-77
2021/12/15 13:05:57;;;;;;;10.38;4.68;;;3.60;99.90;;;;;;5015223;28;20025;-77
2021/12/15 13:08:29;;;;;;;6.45;3.67;;;3.70;99.90;;;;;;5021106;28;20022;-76
2021/12/15 13:11:10;;;;;;;8.48;3.65;;;3.60;99.90;;;;;;5023775;28;20614;-76
2021/12/15 13:13:49;;;;;;;10.30;4.53;;;3.50;99.90;;;;;;5022469;28;20320;-75
2021/12/15 13:16:22;;;;;;;;;;;3.50;99.90;;;;;;5023873;28;20025;-75
2021/12/15 13:18:54;;;;;;;12.93;4.80;;;3.50;99.90;;;;;;5023398;28;19917;-76
2021/12/15 13:22:18;;;;;;;12.95;7.35;;;3.50;99.90;;;;;;5023145;28;20080;-77
2021/12/15 13:31:07;;;;;;;12.65;6.50;;;3.30;99.90;;;;;;5011384;28;20289;-77
2021/12/15 13:33:34;;;;;;;6.43;5.25;;;3.30;99.90;;;;;;4997069;28;20042;-76
2021/12/15 13:36:31;;;;;;;7.35;3.88;;;3.40;99.90;;;;;;5000195;28;20036;-76
2021/12/15 13:39:07;;;;;;;15.10;4.93;;;3.40;99.90;;;;;;5003948;28;20176;-77
2021/12/15 13:41:40;;;;;;;7.68;4.15;;;3.50;99.90;;;;;;5003078;28;20133;-76
2021/12/15 13:44:17;;;;;;;12.88;5.50;;;3.50;99.90;;;;;;5003394;28;20025;-76
2021/12/15 13:46:51;;;;;;;10.75;3.42;;;3.40;99.90;;;;;;5003401;28;20541;-77
2021/12/15 13:49:19;;;;;;;9.82;4.00;;;3.20;99.90;;;;;;5006249;28;20025;-77
2021/12/15 13:52:20;;;;;;;9.70;3.23;;;3.30;99.90;;;;;;5004933;28;20022;-77
2021/12/15 13:54:48;;;;;;;17.05;5.55;;;3.30;99.90;;;;;;4998790;28;20493;-76
2021/12/15 13:57:14;;;;;;;8.82;5.40;;;3.30;99.90;;;;;;5006596;28;20042;-77
2021/12/15 14:00:04;;;;;;;17.65;4.72;;;2.60;99.90;;;;;;5008885;28;20030;-75
2021/12/15 14:02:36;;;;;;;8.23;4.43;;;3.50;99.90;;;;;;5022158;28;20025;-75
2021/12/15 14:05:01;;;;;;;12.45;4.28;;;3.60;99.90;;;;;;5023286;28;20033;-77
2021/12/15 14:07:36;;;;;;;7.97;5.22;;;3.50;99.90;;;;;;5022824;28;20009;-76
2021/12/15 14:10:12;;;;;;;8.55;3.95;;;3.40;99.90;;;;;;5021262;28;20371;-76
2021/12/15 14:12:49;;;;;;;9.98;4.40;;;3.80;99.90;;;;;;5023493;28;20013;-76
2021/12/15 14:15:35;;;;;;;10.70;5.25;;;3.50;99.90;;;;;;5022129;28;20033;-77
2021/12/15 14:18:14;;;;;;;9.98;5.85;;;3.40;99.90;;;;;;5021681;28;20026;-75
2021/12/15 14:20:42;;;;;;;8.85;4.50;;;3.40;99.90;;;;;;5023519;28;20641;-76
2021/12/15 14:23:11;;;;;;;11.75;5.97;;;3.50;99.90;;;;;;5023246;28;20234;-75
2021/12/15 14:25:38;;;;;;;;;;;3.50;99.90;;;;;;5022457;28;20037;-77
2021/12/15 14:28:15;;;;;;;14.88;3.95;;;3.40;99.90;;;;;;5021407;28;19909;-77
2021/12/15 14:30:42;;;;;;;12.98;4.15;;;3.50;99.90;;;;;;5022830;28;20026;-77
2021/12/15 14:33:24;;;;;;;13.65;4.32;;;3.50;99.90;;;;;;5022552;28;20056;-77
2021/12/15 14:35:53;;;;;;;11.23;4.47;;;3.50;99.90;;;;;;5022244;28;20505;-76